sensor_id;sensor_type;location;lat;lon;timestamp;P1;durP1;ratioP1;P2;durP2;ratioP2
1569;SDS011;778;50.120;8.698;2022-12-07T00:01:44;13.47;;;10.10;;
1569;SDS011;778;50.120;8.698;2022-12-07T00:04:15;13.57;;;10.97;;
1569;SDS011;778;50.120;8.698;2022-12-07T00:06:46;14.17;;;10.77;;
1569;SDS011;778;50.120;8.698;2022-12-07T00:09:19;14.63;;;11.53;;
1569;SDS011;778;50.120;8.698;2022-12-07T00:11:50;14.47;;;11.30;;
1569;SDS011;778;50.120;8.698;2022-12-07T00:14:19;15.80;;;12.80;;
1569;SDS011;778;50.120;8.698;2022-12-07T00:16:49;16.80;;;12.87;;
1569;SDS011;778;50.120;8.698;2022-12-07T00:19:18;14.97;;;11.90;;
1569;SDS011;778;50.120;8.698;2022-12-07T00:21:47;18.97;;;13.43;;
1569;SDS011;778;50.120;8.698;2022-12-07T00:24:15;18.53;;;13.90;;
1569;SDS011;778;50.120;8.698;2022-12-07T00:26:44;15.23;;;12.60;;
1569;SDS011;778;50.120;8.698;2022-12-07T00:29:15;16.23;;;12.93;;
1569;SDS011;778;50.120;8.698;2022-12-07T00:31:45;16.97;;;12.13;;
1569;SDS011;778;50.120;8.698;2022-12-07T00:34:15;19.37;;;12.53;;
1569;SDS011;778;50.120;8.698;2022-12-07T00:36:46;15.57;;;10.87;;
1569;SDS011;778;50.120;8.698;2022-12-07T00:39:14;14.27;;;11.20;;
1569;SDS011;778;50.120;8.698;2022-12-07T00:41:43;18.00;;;12.23;;
1569;SDS011;778;50.120;8.698;2022-12-07T00:44:11;13.37;;;10.77;;
1569;SDS011;778;50.120;8.698;2022-12-07T00:46:41;12.43;;;9.97;;
1569;SDS011;778;50.120;8.698;2022-12-07T00:49:11;13.93;;;10.13;;
1569;SDS011;778;50.120;8.698;2022-12-07T00:51:40;12.07;;;10.30;;
1569;SDS011;778;50.120;8.698;2022-12-07T00:54:08;13.43;;;10.27;;
1569;SDS011;778;50.120;8.698;2022-12-07T00:56:37;13.03;;;9.93;;
1569;SDS011;778;50.120;8.698;2022-12-07T00:59:05;15.97;;;12.23;;
1569;SDS011;778;50.120;8.698;2022-12-07T01:01:35;12.20;;;10.27;;
1569;SDS011;778;50.120;8.698;2022-12-07T01:04:06;13.83;;;10.93;;
1569;SDS011;778;50.120;8.698;2022-12-07T01:06:35;12.80;;;10.77;;
1569;SDS011;778;50.120;8.698;2022-12-07T01:09:03;13.73;;;11.03;;
1569;SDS011;778;50.120;8.698;2022-12-07T01:11:32;15.13;;;10.93;;
1569;SDS011;778;50.120;8.698;2022-12-07T01:14:01;12.83;;;11.40;;
1569;SDS011;778;50.120;8.698;2022-12-07T01:16:30;14.47;;;10.80;;
1569;SDS011;778;50.120;8.698;2022-12-07T01:19:00;14.13;;;11.00;;
1569;SDS011;778;50.120;8.698;2022-12-07T01:21:33;14.43;;;10.70;;
1569;SDS011;778;50.120;8.698;2022-12-07T01:24:05;13.53;;;10.20;;
1569;SDS011;778;50.120;8.698;2022-12-07T01:26:37;13.73;;;9.70;;
1569;SDS011;778;50.120;8.698;2022-12-07T01:29:06;11.90;;;10.63;;
1569;SDS011;778;50.120;8.698;2022-12-07T01:31:34;14.13;;;10.93;;
1569;SDS011;778;50.120;8.698;2022-12-07T01:34:03;13.63;;;11.10;;
1569;SDS011;778;50.120;8.698;2022-12-07T01:36:34;17.70;;;12.73;;
1569;SDS011;778;50.120;8.698;2022-12-07T01:39:04;15.20;;;12.63;;
1569;SDS011;778;50.120;8.698;2022-12-07T01:41:35;13.03;;;11.20;;
1569;SDS011;778;50.120;8.698;2022-12-07T01:44:16;17.53;;;12.03;;
1569;SDS011;778;50.120;8.698;2022-12-07T01:46:49;13.50;;;10.00;;
1569;SDS011;778;50.120;8.698;2022-12-07T01:49:21;14.00;;;11.40;;
1569;SDS011;778;50.120;8.698;2022-12-07T01:52:00;15.00;;;12.37;;
1569;SDS011;778;50.120;8.698;2022-12-07T01:54:36;21.07;;;15.03;;
1569;SDS011;778;50.120;8.698;2022-12-07T01:57:05;28.03;;;16.03;;
1569;SDS011;778;50.120;8.698;2022-12-07T01:59:35;18.13;;;13.30;;
1569;SDS011;778;50.120;8.698;2022-12-07T02:02:06;21.27;;;15.07;;
1569;SDS011;778;50.120;8.698;2022-12-07T02:04:43;23.43;;;16.67;;
1569;SDS011;778;50.120;8.698;2022-12-07T02:07:13;25.40;;;16.97;;
1569;SDS011;778;50.120;8.698;2022-12-07T02:09:43;19.30;;;14.50;;
1569;SDS011;778;50.120;8.698;2022-12-07T02:12:11;17.00;;;12.57;;
1569;SDS011;778;50.120;8.698;2022-12-07T02:14:40;15.10;;;11.63;;
1569;SDS011;778;50.120;8.698;2022-12-07T02:17:11;15.30;;;11.40;;
1569;SDS011;778;50.120;8.698;2022-12-07T02:29:39;10.47;;;8.00;;
1569;SDS011;778;50.120;8.698;2022-12-07T02:32:13;12.70;;;8.60;;
1569;SDS011;778;50.120;8.698;2022-12-07T02:34:48;11.80;;;9.37;;
1569;SDS011;778;50.120;8.698;2022-12-07T02:37:25;11.10;;;9.20;;
1569;SDS011;778;50.120;8.698;2022-12-07T02:40:04;15.03;;;9.90;;
1569;SDS011;778;50.120;8.698;2022-12-07T02:42:40;11.87;;;9.27;;
1569;SDS011;778;50.120;8.698;2022-12-07T02:45:15;15.37;;;8.87;;
1569;SDS011;778;50.120;8.698;2022-12-07T02:47:49;11.37;;;8.70;;
1569;SDS011;778;50.120;8.698;2022-12-07T02:50:20;11.13;;;7.80;;
1569;SDS011;778;50.120;8.698;2022-12-07T02:52:49;13.50;;;9.53;;
1569;SDS011;778;50.120;8.698;2022-12-07T02:55:18;11.03;;;9.10;;
1569;SDS011;778;50.120;8.698;2022-12-07T03:00:55;12.30;;;8.30;;
1569;SDS011;778;50.120;8.698;2022-12-07T03:03:34;11.70;;;9.17;;
1569;SDS011;778;50.120;8.698;2022-12-07T03:06:09;14.10;;;8.83;;
1569;SDS011;778;50.120;8.698;2022-12-07T03:08:48;12.50;;;9.53;;
1569;SDS011;778;50.120;8.698;2022-12-07T03:11:25;13.90;;;8.80;;
1569;SDS011;778;50.120;8.698;2022-12-07T03:14:05;11.60;;;8.10;;
1569;SDS011;778;50.120;8.698;2022-12-07T03:16:43;11.57;;;8.83;;
1569;SDS011;778;50.120;8.698;2022-12-07T03:19:18;11.97;;;8.67;;
1569;SDS011;778;50.120;8.698;2022-12-07T03:21:49;16.80;;;8.23;;
1569;SDS011;778;50.120;8.698;2022-12-07T03:24:24;10.60;;;8.60;;
1569;SDS011;778;50.120;8.698;2022-12-07T03:26:56;9.70;;;8.23;;
1569;SDS011;778;50.120;8.698;2022-12-07T03:29:34;12.20;;;8.30;;
1569;SDS011;778;50.120;8.698;2022-12-07T03:32:12;9.03;;;7.57;;
1569;SDS011;778;50.120;8.698;2022-12-07T03:34:46;9.20;;;7.20;;
1569;SDS011;778;50.120;8.698;2022-12-07T03:37:20;12.10;;;7.97;;
1569;SDS011;778;50.120;8.698;2022-12-07T03:39:56;10.40;;;7.80;;
1569;SDS011;778;50.120;8.698;2022-12-07T03:42:30;10.40;;;7.60;;
1569;SDS011;778;50.120;8.698;2022-12-07T03:45:00;9.70;;;8.67;;
1569;SDS011;778;50.120;8.698;2022-12-07T03:47:33;11.10;;;8.50;;
1569;SDS011;778;50.120;8.698;2022-12-07T03:50:07;10.80;;;7.57;;
1569;SDS011;778;50.120;8.698;2022-12-07T03:52:42;9.87;;;8.13;;
1569;SDS011;778;50.120;8.698;2022-12-07T03:55:15;9.60;;;7.23;;
1569;SDS011;778;50.120;8.698;2022-12-07T03:57:53;9.53;;;7.43;;
1569;SDS011;778;50.120;8.698;2022-12-07T04:00:26;10.23;;;7.43;;
1569;SDS011;778;50.120;8.698;2022-12-07T04:02:57;12.27;;;8.03;;
1569;SDS011;778;50.120;8.698;2022-12-07T04:05:26;9.97;;;7.70;;
1569;SDS011;778;50.120;8.698;2022-12-07T04:07:54;8.37;;;7.47;;
1569;SDS011;778;50.120;8.698;2022-12-07T04:10:23;9.80;;;7.70;;
1569;SDS011;778;50.120;8.698;2022-12-07T04:12:52;8.57;;;6.30;;
1569;SDS011;778;50.120;8.698;2022-12-07T04:15:20;11.70;;;7.97;;
1569;SDS011;778;50.120;8.698;2022-12-07T04:17:49;14.77;;;8.90;;
1569;SDS011;778;50.120;8.698;2022-12-07T04:20:19;12.27;;;6.93;;
1569;SDS011;778;50.120;8.698;2022-12-07T04:22:48;9.27;;;6.90;;
1569;SDS011;778;50.120;8.698;2022-12-07T04:25:16;9.57;;;7.07;;
1569;SDS011;778;50.120;8.698;2022-12-07T04:27:45;12.50;;;8.37;;
1569;SDS011;778;50.120;8.698;2022-12-07T04:30:13;11.67;;;7.20;;
1569;SDS011;778;50.120;8.698;2022-12-07T04:32:42;9.23;;;7.93;;
1569;SDS011;778;50.120;8.698;2022-12-07T04:35:10;10.10;;;7.30;;
1569;SDS011;778;50.120;8.698;2022-12-07T04:37:40;8.77;;;6.90;;
1569;SDS011;778;50.120;8.698;2022-12-07T04:40:09;11.00;;;8.07;;
1569;SDS011;778;50.120;8.698;2022-12-07T04:42:40;11.23;;;7.93;;
1569;SDS011;778;50.120;8.698;2022-12-07T04:45:09;8.13;;;7.03;;
1569;SDS011;778;50.120;8.698;2022-12-07T04:47:37;9.23;;;7.80;;
1569;SDS011;778;50.120;8.698;2022-12-07T04:50:06;9.40;;;7.70;;
1569;SDS011;778;50.120;8.698;2022-12-07T04:52:37;10.17;;;7.33;;
1569;SDS011;778;50.120;8.698;2022-12-07T04:55:07;9.60;;;7.80;;
1569;SDS011;778;50.120;8.698;2022-12-07T04:57:35;10.70;;;8.30;;
1569;SDS011;778;50.120;8.698;2022-12-07T05:00:04;9.60;;;7.70;;
1569;SDS011;778;50.120;8.698;2022-12-07T05:02:34;9.67;;;7.60;;
1569;SDS011;778;50.120;8.698;2022-12-07T05:05:03;9.00;;;7.10;;
1569;SDS011;778;50.120;8.698;2022-12-07T05:07:32;10.10;;;8.20;;
1569;SDS011;778;50.120;8.698;2022-12-07T05:10:00;9.80;;;7.00;;
1569;SDS011;778;50.120;8.698;2022-12-07T05:12:31;13.17;;;9.80;;
1569;SDS011;778;50.120;8.698;2022-12-07T05:14:59;8.23;;;6.80;;
1569;SDS011;778;50.120;8.698;2022-12-07T05:17:27;8.73;;;7.20;;
1569;SDS011;778;50.120;8.698;2022-12-07T05:19:56;9.67;;;7.30;;
1569;SDS011;778;50.120;8.698;2022-12-07T05:22:24;9.67;;;6.77;;
1569;SDS011;778;50.120;8.698;2022-12-07T05:24:54;9.60;;;7.67;;
1569;SDS011;778;50.120;8.698;2022-12-07T05:27:23;10.70;;;7.07;;
1569;SDS011;778;50.120;8.698;2022-12-07T05:29:52;10.30;;;7.23;;
1569;SDS011;778;50.120;8.698;2022-12-07T05:32:21;10.77;;;8.63;;
1569;SDS011;778;50.120;8.698;2022-12-07T05:34:49;12.53;;;9.97;;
1569;SDS011;778;50.120;8.698;2022-12-07T05:37:18;12.13;;;8.37;;
1569;SDS011;778;50.120;8.698;2022-12-07T05:39:47;11.80;;;7.53;;
1569;SDS011;778;50.120;8.698;2022-12-07T05:42:15;10.57;;;7.97;;
1569;SDS011;778;50.120;8.698;2022-12-07T05:44:45;10.80;;;8.40;;
1569;SDS011;778;50.120;8.698;2022-12-07T05:47:15;11.87;;;8.93;;
1569;SDS011;778;50.120;8.698;2022-12-07T05:49:44;15.17;;;10.03;;
1569;SDS011;778;50.120;8.698;2022-12-07T05:52:12;11.50;;;8.77;;
1569;SDS011;778;50.120;8.698;2022-12-07T05:54:41;9.30;;;7.77;;
1569;SDS011;778;50.120;8.698;2022-12-07T05:57:09;10.50;;;8.47;;
1569;SDS011;778;50.120;8.698;2022-12-07T05:59:37;9.80;;;7.93;;
1569;SDS011;778;50.120;8.698;2022-12-07T06:02:06;13.70;;;8.70;;
1569;SDS011;778;50.120;8.698;2022-12-07T06:04:38;10.87;;;8.27;;
1569;SDS011;778;50.120;8.698;2022-12-07T06:07:08;14.60;;;8.47;;
1569;SDS011;778;50.120;8.698;2022-12-07T06:09:38;12.97;;;8.90;;
1569;SDS011;778;50.120;8.698;2022-12-07T06:12:08;11.03;;;8.40;;
1569;SDS011;778;50.120;8.698;2022-12-07T06:14:55;9.33;;;7.80;;
1569;SDS011;778;50.120;8.698;2022-12-07T06:17:24;12.13;;;7.93;;
1569;SDS011;778;50.120;8.698;2022-12-07T06:19:54;12.20;;;9.40;;
1569;SDS011;778;50.120;8.698;2022-12-07T06:22:22;11.77;;;8.40;;
1569;SDS011;778;50.120;8.698;2022-12-07T06:24:51;13.73;;;9.70;;
1569;SDS011;778;50.120;8.698;2022-12-07T06:27:19;15.40;;;8.43;;
1569;SDS011;778;50.120;8.698;2022-12-07T06:29:47;12.33;;;9.00;;
1569;SDS011;778;50.120;8.698;2022-12-07T06:32:16;13.43;;;10.20;;
1569;SDS011;778;50.120;8.698;2022-12-07T06:34:44;14.10;;;9.40;;
1569;SDS011;778;50.120;8.698;2022-12-07T06:37:15;14.00;;;9.73;;
1569;SDS011;778;50.120;8.698;2022-12-07T06:39:44;10.73;;;8.90;;
1569;SDS011;778;50.120;8.698;2022-12-07T06:42:13;15.20;;;9.03;;
1569;SDS011;778;50.120;8.698;2022-12-07T06:44:41;12.83;;;8.73;;
1569;SDS011;778;50.120;8.698;2022-12-07T06:47:09;11.00;;;8.30;;
1569;SDS011;778;50.120;8.698;2022-12-07T06:49:58;10.80;;;9.00;;
1569;SDS011;778;50.120;8.698;2022-12-07T06:52:29;13.17;;;9.10;;
1569;SDS011;778;50.120;8.698;2022-12-07T06:54:58;13.60;;;10.30;;
1569;SDS011;778;50.120;8.698;2022-12-07T06:57:26;12.23;;;9.33;;
1569;SDS011;778;50.120;8.698;2022-12-07T06:59:55;12.20;;;9.37;;
1569;SDS011;778;50.120;8.698;2022-12-07T07:02:23;13.87;;;10.87;;
1569;SDS011;778;50.120;8.698;2022-12-07T07:04:51;14.30;;;9.57;;
1569;SDS011;778;50.120;8.698;2022-12-07T07:07:20;12.90;;;9.50;;
1569;SDS011;778;50.120;8.698;2022-12-07T07:09:50;12.23;;;10.43;;
1569;SDS011;778;50.120;8.698;2022-12-07T07:12:18;14.33;;;10.37;;
1569;SDS011;778;50.120;8.698;2022-12-07T07:14:46;12.20;;;9.83;;
1569;SDS011;778;50.120;8.698;2022-12-07T07:17:15;16.90;;;10.37;;
1569;SDS011;778;50.120;8.698;2022-12-07T07:19:43;12.83;;;9.93;;
1569;SDS011;778;50.120;8.698;2022-12-07T07:22:12;16.20;;;10.80;;
1569;SDS011;778;50.120;8.698;2022-12-07T07:24:40;16.33;;;11.33;;
1569;SDS011;778;50.120;8.698;2022-12-07T07:27:10;14.00;;;11.30;;
1569;SDS011;778;50.120;8.698;2022-12-07T07:29:38;15.00;;;11.17;;
1569;SDS011;778;50.120;8.698;2022-12-07T07:32:07;12.47;;;11.07;;
1569;SDS011;778;50.120;8.698;2022-12-07T07:34:35;14.30;;;10.17;;
1569;SDS011;778;50.120;8.698;2022-12-07T07:37:04;11.20;;;10.10;;
1569;SDS011;778;50.120;8.698;2022-12-07T07:39:32;14.03;;;11.23;;
1569;SDS011;778;50.120;8.698;2022-12-07T07:42:00;17.63;;;11.27;;
1569;SDS011;778;50.120;8.698;2022-12-07T07:44:33;13.00;;;10.43;;
1569;SDS011;778;50.120;8.698;2022-12-07T07:47:01;12.70;;;9.67;;
1569;SDS011;778;50.120;8.698;2022-12-07T07:49:30;15.33;;;9.80;;
1569;SDS011;778;50.120;8.698;2022-12-07T07:51:59;17.83;;;10.40;;
1569;SDS011;778;50.120;8.698;2022-12-07T07:54:27;13.40;;;10.13;;
1569;SDS011;778;50.120;8.698;2022-12-07T07:56:56;12.20;;;9.70;;
1569;SDS011;778;50.120;8.698;2022-12-07T07:59:24;12.57;;;9.70;;
1569;SDS011;778;50.120;8.698;2022-12-07T08:01:54;12.07;;;9.93;;
1569;SDS011;778;50.120;8.698;2022-12-07T08:04:22;11.97;;;9.70;;
1569;SDS011;778;50.120;8.698;2022-12-07T08:06:51;11.47;;;9.13;;
1569;SDS011;778;50.120;8.698;2022-12-07T08:09:20;10.60;;;9.23;;
1569;SDS011;778;50.120;8.698;2022-12-07T08:11:48;13.37;;;9.00;;
1569;SDS011;778;50.120;8.698;2022-12-07T08:14:17;16.30;;;8.70;;
1569;SDS011;778;50.120;8.698;2022-12-07T08:16:45;11.00;;;9.03;;
1569;SDS011;778;50.120;8.698;2022-12-07T08:19:15;13.13;;;10.77;;
1569;SDS011;778;50.120;8.698;2022-12-07T08:21:43;13.03;;;9.83;;
1569;SDS011;778;50.120;8.698;2022-12-07T08:24:12;16.17;;;10.10;;
1569;SDS011;778;50.120;8.698;2022-12-07T08:26:41;11.50;;;8.83;;
1569;SDS011;778;50.120;8.698;2022-12-07T08:29:10;11.77;;;9.50;;
1569;SDS011;778;50.120;8.698;2022-12-07T08:31:38;11.80;;;9.47;;
1569;SDS011;778;50.120;8.698;2022-12-07T08:34:07;13.10;;;10.70;;
1569;SDS011;778;50.120;8.698;2022-12-07T08:36:39;15.33;;;10.33;;
1569;SDS011;778;50.120;8.698;2022-12-07T08:39:07;13.33;;;9.40;;
1569;SDS011;778;50.120;8.698;2022-12-07T08:41:56;10.67;;;9.10;;
1569;SDS011;778;50.120;8.698;2022-12-07T08:44:24;13.20;;;10.13;;
1569;SDS011;778;50.120;8.698;2022-12-07T08:46:53;10.90;;;8.83;;
1569;SDS011;778;50.120;8.698;2022-12-07T08:49:27;14.03;;;9.37;;
1569;SDS011;778;50.120;8.698;2022-12-07T08:52:01;11.53;;;8.83;;
1569;SDS011;778;50.120;8.698;2022-12-07T08:54:33;13.17;;;8.97;;
1569;SDS011;778;50.120;8.698;2022-12-07T08:57:04;10.53;;;9.43;;
1569;SDS011;778;50.120;8.698;2022-12-07T08:59:33;11.30;;;9.30;;
1569;SDS011;778;50.120;8.698;2022-12-07T09:02:04;13.23;;;9.90;;
1569;SDS011;778;50.120;8.698;2022-12-07T09:04:33;13.00;;;9.90;;
1569;SDS011;778;50.120;8.698;2022-12-07T09:07:03;12.30;;;10.07;;
1569;SDS011;778;50.120;8.698;2022-12-07T09:09:31;14.50;;;8.50;;
1569;SDS011;778;50.120;8.698;2022-12-07T09:12:00;11.60;;;8.70;;
1569;SDS011;778;50.120;8.698;2022-12-07T09:14:28;11.30;;;7.90;;
1569;SDS011;778;50.120;8.698;2022-12-07T09:17:04;10.23;;;8.50;;
1569;SDS011;778;50.120;8.698;2022-12-07T09:19:34;10.37;;;8.20;;
1569;SDS011;778;50.120;8.698;2022-12-07T09:22:04;12.00;;;8.30;;
1569;SDS011;778;50.120;8.698;2022-12-07T09:24:34;10.17;;;8.30;;
1569;SDS011;778;50.120;8.698;2022-12-07T09:27:02;9.40;;;8.07;;
1569;SDS011;778;50.120;8.698;2022-12-07T09:29:31;13.13;;;7.30;;
1569;SDS011;778;50.120;8.698;2022-12-07T09:31:59;10.90;;;7.50;;
1569;SDS011;778;50.120;8.698;2022-12-07T09:34:35;9.27;;;7.13;;
1569;SDS011;778;50.120;8.698;2022-12-07T09:37:05;9.73;;;7.80;;
1569;SDS011;778;50.120;8.698;2022-12-07T09:39:34;10.30;;;8.20;;
1569;SDS011;778;50.120;8.698;2022-12-07T09:42:19;13.50;;;7.37;;
1569;SDS011;778;50.120;8.698;2022-12-07T09:44:56;12.83;;;8.27;;
1569;SDS011;778;50.120;8.698;2022-12-07T09:47:25;10.27;;;7.13;;
1569;SDS011;778;50.120;8.698;2022-12-07T09:49:55;9.13;;;7.53;;
1569;SDS011;778;50.120;8.698;2022-12-07T09:52:34;9.83;;;7.33;;
1569;SDS011;778;50.120;8.698;2022-12-07T09:55:08;8.93;;;7.97;;
1569;SDS011;778;50.120;8.698;2022-12-07T09:57:40;10.63;;;7.33;;
1569;SDS011;778;50.120;8.698;2022-12-07T10:00:11;9.90;;;7.93;;
1569;SDS011;778;50.120;8.698;2022-12-07T10:02:43;8.43;;;7.53;;
1569;SDS011;778;50.120;8.698;2022-12-07T10:05:16;8.63;;;7.50;;
1569;SDS011;778;50.120;8.698;2022-12-07T10:07:51;8.87;;;8.07;;
1569;SDS011;778;50.120;8.698;2022-12-07T10:10:22;10.73;;;7.97;;
1569;SDS011;778;50.120;8.698;2022-12-07T10:12:59;10.27;;;7.53;;
1569;SDS011;778;50.120;8.698;2022-12-07T10:15:43;12.07;;;7.70;;
1569;SDS011;778;50.120;8.698;2022-12-07T10:18:17;8.23;;;6.83;;
1569;SDS011;778;50.120;8.698;2022-12-07T10:21:06;6.90;;;6.30;;
1569;SDS011;778;50.120;8.698;2022-12-07T10:23:42;10.97;;;7.83;;
1569;SDS011;778;50.120;8.698;2022-12-07T10:26:30;9.20;;;6.57;;
1569;SDS011;778;50.120;8.698;2022-12-07T10:29:00;7.57;;;5.93;;
1569;SDS011;778;50.120;8.698;2022-12-07T10:31:44;10.40;;;7.20;;
1569;SDS011;778;50.120;8.698;2022-12-07T10:34:20;9.40;;;5.30;;
1569;SDS011;778;50.120;8.698;2022-12-07T10:36:51;6.20;;;5.40;;
1569;SDS011;778;50.120;8.698;2022-12-07T10:39:23;7.63;;;5.00;;
1569;SDS011;778;50.120;8.698;2022-12-07T10:41:54;4.27;;;3.87;;
1569;SDS011;778;50.120;8.698;2022-12-07T10:44:25;3.57;;;3.27;;
1569;SDS011;778;50.120;8.698;2022-12-07T10:50:05;5.50;;;3.20;;
1569;SDS011;778;50.120;8.698;2022-12-07T10:53:00;4.57;;;3.30;;
1569;SDS011;778;50.120;8.698;2022-12-07T10:55:51;4.20;;;2.67;;
1569;SDS011;778;50.120;8.698;2022-12-07T10:58:48;6.83;;;3.40;;
1569;SDS011;778;50.120;8.698;2022-12-07T11:01:32;6.97;;;2.80;;
1569;SDS011;778;50.120;8.698;2022-12-07T11:04:17;5.30;;;3.37;;
1569;SDS011;778;50.120;8.698;2022-12-07T11:06:54;10.90;;;3.13;;
1569;SDS011;778;50.120;8.698;2022-12-07T11:09:33;4.00;;;2.83;;
1569;SDS011;778;50.120;8.698;2022-12-07T11:12:43;4.10;;;3.43;;
1569;SDS011;778;50.120;8.698;2022-12-07T11:15:33;4.40;;;2.90;;
1569;SDS011;778;50.120;8.698;2022-12-07T11:18:23;7.83;;;2.87;;
1569;SDS011;778;50.120;8.698;2022-12-07T11:20:58;4.03;;;3.63;;
1569;SDS011;778;50.120;8.698;2022-12-07T11:23:39;3.97;;;3.67;;
1569;SDS011;778;50.120;8.698;2022-12-07T11:26:19;6.17;;;3.07;;
1569;SDS011;778;50.120;8.698;2022-12-07T11:29:07;4.17;;;3.00;;
1569;SDS011;778;50.120;8.698;2022-12-07T11:32:11;3.67;;;3.30;;
1569;SDS011;778;50.120;8.698;2022-12-07T11:34:49;4.03;;;2.90;;
1569;SDS011;778;50.120;8.698;2022-12-07T11:37:28;4.87;;;3.20;;
1569;SDS011;778;50.120;8.698;2022-12-07T11:40:08;5.10;;;3.27;;
1569;SDS011;778;50.120;8.698;2022-12-07T11:42:47;4.63;;;3.13;;
1569;SDS011;778;50.120;8.698;2022-12-07T11:45:23;4.23;;;3.30;;
1569;SDS011;778;50.120;8.698;2022-12-07T11:47:55;4.73;;;3.83;;
1569;SDS011;778;50.120;8.698;2022-12-07T11:50:33;5.97;;;3.40;;
1569;SDS011;778;50.120;8.698;2022-12-07T11:53:05;5.77;;;3.63;;
1569;SDS011;778;50.120;8.698;2022-12-07T11:55:43;4.60;;;3.10;;
1569;SDS011;778;50.120;8.698;2022-12-07T11:58:22;6.40;;;3.53;;
1569;SDS011;778;50.120;8.698;2022-12-07T12:01:08;3.40;;;2.77;;
1569;SDS011;778;50.120;8.698;2022-12-07T12:03:47;4.27;;;3.23;;
1569;SDS011;778;50.120;8.698;2022-12-07T12:06:19;4.88;;;2.90;;
1569;SDS011;778;50.120;8.698;2022-12-07T12:08:50;3.43;;;3.13;;
1569;SDS011;778;50.120;8.698;2022-12-07T12:11:49;5.07;;;3.10;;
1569;SDS011;778;50.120;8.698;2022-12-07T12:15:22;5.47;;;2.83;;
1569;SDS011;778;50.120;8.698;2022-12-07T12:18:10;6.50;;;3.00;;
1569;SDS011;778;50.120;8.698;2022-12-07T12:20:58;3.80;;;2.40;;
1569;SDS011;778;50.120;8.698;2022-12-07T12:23:35;3.70;;;2.10;;
1569;SDS011;778;50.120;8.698;2022-12-07T12:26:13;6.37;;;2.97;;
1569;SDS011;778;50.120;8.698;2022-12-07T12:28:50;2.30;;;2.13;;
1569;SDS011;778;50.120;8.698;2022-12-07T12:31:32;3.47;;;2.00;;
1569;SDS011;778;50.120;8.698;2022-12-07T12:37:13;2.70;;;2.47;;
1569;SDS011;778;50.120;8.698;2022-12-07T12:52:53;9.47;;;1.80;;
1569;SDS011;778;50.120;8.698;2022-12-07T13:01:51;1.97;;;1.87;;
1569;SDS011;778;50.120;8.698;2022-12-07T13:04:25;2.10;;;1.80;;
1569;SDS011;778;50.120;8.698;2022-12-07T13:10:33;3.07;;;1.77;;
1569;SDS011;778;50.120;8.698;2022-12-07T13:22:35;3.30;;;1.70;;
1569;SDS011;778;50.120;8.698;2022-12-07T13:28:14;2.83;;;2.07;;
1569;SDS011;778;50.120;8.698;2022-12-07T13:30:45;4.83;;;2.07;;
1569;SDS011;778;50.120;8.698;2022-12-07T13:33:27;2.50;;;1.93;;
1569;SDS011;778;50.120;8.698;2022-12-07T13:35:57;6.53;;;2.43;;
1569;SDS011;778;50.120;8.698;2022-12-07T13:38:27;4.83;;;2.50;;
1569;SDS011;778;50.120;8.698;2022-12-07T13:41:04;2.80;;;2.17;;
1569;SDS011;778;50.120;8.698;2022-12-07T13:43:42;2.23;;;2.03;;
1569;SDS011;778;50.120;8.698;2022-12-07T13:46:13;1.73;;;1.40;;
1569;SDS011;778;50.120;8.698;2022-12-07T13:48:45;4.77;;;1.50;;
1569;SDS011;778;50.120;8.698;2022-12-07T13:51:19;3.60;;;1.70;;
1569;SDS011;778;50.120;8.698;2022-12-07T13:53:51;2.20;;;1.97;;
1569;SDS011;778;50.120;8.698;2022-12-07T13:56:25;1.73;;;1.50;;
1569;SDS011;778;50.120;8.698;2022-12-07T13:59:00;2.90;;;1.60;;
1569;SDS011;778;50.120;8.698;2022-12-07T14:01:30;3.17;;;1.60;;
1569;SDS011;778;50.120;8.698;2022-12-07T14:07:00;4.87;;;1.37;;
1569;SDS011;778;50.120;8.698;2022-12-07T14:09:55;3.57;;;2.17;;
1569;SDS011;778;50.120;8.698;2022-12-07T14:12:27;3.53;;;2.10;;
1569;SDS011;778;50.120;8.698;2022-12-07T14:14:58;1.73;;;1.63;;
1569;SDS011;778;50.120;8.698;2022-12-07T14:17:29;2.00;;;1.60;;
1569;SDS011;778;50.120;8.698;2022-12-07T14:19:58;2.43;;;2.00;;
1569;SDS011;778;50.120;8.698;2022-12-07T14:22:28;1.90;;;1.50;;
1569;SDS011;778;50.120;8.698;2022-12-07T14:24:59;5.13;;;1.93;;
1569;SDS011;778;50.120;8.698;2022-12-07T14:27:51;2.93;;;1.57;;
1569;SDS011;778;50.120;8.698;2022-12-07T14:30:25;3.20;;;2.10;;
1569;SDS011;778;50.120;8.698;2022-12-07T14:32:57;5.60;;;2.40;;
1569;SDS011;778;50.120;8.698;2022-12-07T14:35:28;4.03;;;2.00;;
1569;SDS011;778;50.120;8.698;2022-12-07T14:37:58;5.10;;;2.57;;
1569;SDS011;778;50.120;8.698;2022-12-07T14:40:27;5.17;;;2.73;;
1569;SDS011;778;50.120;8.698;2022-12-07T14:42:59;5.10;;;2.43;;
1569;SDS011;778;50.120;8.698;2022-12-07T14:45:30;3.77;;;1.90;;
1569;SDS011;778;50.120;8.698;2022-12-07T14:47:59;3.07;;;2.00;;
1569;SDS011;778;50.120;8.698;2022-12-07T14:50:49;5.23;;;2.23;;
1569;SDS011;778;50.120;8.698;2022-12-07T14:53:40;2.97;;;2.00;;
1569;SDS011;778;50.120;8.698;2022-12-07T14:56:20;2.33;;;2.00;;
1569;SDS011;778;50.120;8.698;2022-12-07T14:58:50;3.47;;;2.47;;
1569;SDS011;778;50.120;8.698;2022-12-07T15:01:19;3.07;;;2.40;;
1569;SDS011;778;50.120;8.698;2022-12-07T15:03:47;2.00;;;1.60;;
1569;SDS011;778;50.120;8.698;2022-12-07T15:06:17;2.90;;;1.47;;
1569;SDS011;778;50.120;8.698;2022-12-07T15:08:46;2.80;;;1.30;;
1569;SDS011;778;50.120;8.698;2022-12-07T15:11:15;1.90;;;1.43;;
1569;SDS011;778;50.120;8.698;2022-12-07T15:13:45;2.67;;;2.20;;
1569;SDS011;778;50.120;8.698;2022-12-07T15:16:33;4.13;;;1.80;;
1569;SDS011;778;50.120;8.698;2022-12-07T15:19:23;3.20;;;1.60;;
1569;SDS011;778;50.120;8.698;2022-12-07T15:21:55;1.60;;;1.40;;
1569;SDS011;778;50.120;8.698;2022-12-07T15:24:26;1.93;;;1.70;;
1569;SDS011;778;50.120;8.698;2022-12-07T15:26:55;4.53;;;2.40;;
1569;SDS011;778;50.120;8.698;2022-12-07T15:29:23;3.20;;;2.33;;
1569;SDS011;778;50.120;8.698;2022-12-07T15:31:53;7.70;;;2.73;;
1569;SDS011;778;50.120;8.698;2022-12-07T15:34:24;2.40;;;2.13;;
1569;SDS011;778;50.120;8.698;2022-12-07T15:37:03;14.47;;;10.57;;
1569;SDS011;778;50.120;8.698;2022-12-07T15:39:32;4.43;;;3.20;;
1569;SDS011;778;50.120;8.698;2022-12-07T15:42:00;3.63;;;2.23;;
1569;SDS011;778;50.120;8.698;2022-12-07T15:44:28;3.10;;;2.27;;
1569;SDS011;778;50.120;8.698;2022-12-07T15:47:16;5.20;;;2.93;;
1569;SDS011;778;50.120;8.698;2022-12-07T15:49:44;6.00;;;2.97;;
1569;SDS011;778;50.120;8.698;2022-12-07T15:52:13;1.90;;;1.80;;
1569;SDS011;778;50.120;8.698;2022-12-07T15:54:42;5.07;;;2.13;;
1569;SDS011;778;50.120;8.698;2022-12-07T15:57:10;3.47;;;2.10;;
1569;SDS011;778;50.120;8.698;2022-12-07T15:59:39;5.03;;;2.70;;
1569;SDS011;778;50.120;8.698;2022-12-07T16:02:07;5.80;;;3.43;;
1569;SDS011;778;50.120;8.698;2022-12-07T16:04:39;3.40;;;2.37;;
1569;SDS011;778;50.120;8.698;2022-12-07T16:07:07;6.73;;;3.10;;
1569;SDS011;778;50.120;8.698;2022-12-07T16:09:37;7.60;;;4.13;;
1569;SDS011;778;50.120;8.698;2022-12-07T16:12:06;7.10;;;2.87;;
1569;SDS011;778;50.120;8.698;2022-12-07T16:14:35;6.63;;;3.87;;
1569;SDS011;778;50.120;8.698;2022-12-07T16:17:03;7.43;;;3.93;;
1569;SDS011;778;50.120;8.698;2022-12-07T16:19:33;5.97;;;2.90;;
1569;SDS011;778;50.120;8.698;2022-12-07T16:22:03;8.37;;;3.87;;
1569;SDS011;778;50.120;8.698;2022-12-07T16:24:32;2.70;;;2.23;;
1569;SDS011;778;50.120;8.698;2022-12-07T16:27:01;4.00;;;3.10;;
1569;SDS011;778;50.120;8.698;2022-12-07T16:29:29;2.57;;;1.87;;
1569;SDS011;778;50.120;8.698;2022-12-07T16:31:58;4.80;;;2.57;;
1569;SDS011;778;50.120;8.698;2022-12-07T16:34:26;6.37;;;3.33;;
1569;SDS011;778;50.120;8.698;2022-12-07T16:36:55;5.00;;;3.10;;
1569;SDS011;778;50.120;8.698;2022-12-07T16:39:33;3.17;;;2.13;;
1569;SDS011;778;50.120;8.698;2022-12-07T16:42:02;6.73;;;3.27;;
1569;SDS011;778;50.120;8.698;2022-12-07T16:44:31;6.60;;;2.97;;
1569;SDS011;778;50.120;8.698;2022-12-07T16:46:59;3.43;;;2.73;;
1569;SDS011;778;50.120;8.698;2022-12-07T16:49:28;5.50;;;3.30;;
1569;SDS011;778;50.120;8.698;2022-12-07T16:51:56;3.63;;;2.80;;